Time;durP1;ratioP1;P1;durP2;ratioP2;P2;SDS_P1;SDS_P2;PMS_P1;PMS_P2;Temp;Humidity;BMP_temperature;BMP_pressure;BME280_temperature;BME280_humidity;BME280_pressure;Samples;Min_cycle;Max_cycle;Signal;HPM_P1;HPM_P2
2023/07/02 00:01:50;;;;;;;13.65;5.88;;;15.80;99.90;;;;;;6245573;23;20036;-61
2023/07/02 00:04:19;;;;;;;14.30;6.35;;;15.70;99.90;;;;;;6244759;23;20028;-61
2023/07/02 00:06:46;;;;;;;15.48;6.80;;;15.70;99.90;;;;;;6245613;23;20020;-60
2023/07/02 00:09:14;;;;;;;16.65;6.55;;;15.60;99.90;;;;;;6245462;23;20024;-60
2023/07/02 00:11:44;;;;;;;25.13;7.85;;;15.50;99.90;;;;;;6244924;23;20352;-60
2023/07/02 00:14:11;;;;;;;24.17;7.03;;;15.50;99.90;;;;;;6245301;23;20078;-60
2023/07/02 00:16:40;;;;;;;21.17;7.38;;;15.50;99.90;;;;;;6243593;23;20070;-61
2023/07/02 00:19:07;;;;;;;17.52;6.68;;;15.40;99.90;;;;;;6242801;23;20024;-60
2023/07/02 00:21:37;;;;;;;15.85;6.88;;;15.40;99.90;;;;;;6243796;23;20020;-59
2023/07/02 00:24:05;;;;;;;17.15;6.10;;;15.40;99.90;;;;;;6242373;23;20050;-60
2023/07/02 00:26:32;;;;;;;17.60;7.28;;;15.40;99.90;;;;;;6243416;23;20070;-60
2023/07/02 00:28:58;;;;;;;17.00;7.75;;;15.40;99.90;;;;;;6245352;23;20074;-60
2023/07/02 00:31:25;;;;;;;15.35;6.82;;;15.40;99.90;;;;;;6242922;23;20024;-60
2023/07/02 00:33:52;;;;;;;20.48;8.00;;;15.40;99.90;;;;;;6245448;23;20050;-60
2023/07/02 00:36:19;;;;;;;17.55;7.63;;;15.30;99.90;;;;;;6245335;23;20017;-60
2023/07/02 00:38:48;;;;;;;18.15;7.15;;;15.30;99.90;;;;;;6244526;23;20349;-60
2023/07/02 00:41:16;;;;;;;16.50;6.70;;;15.30;99.90;;;;;;6245101;22;20020;-60
2023/07/02 00:43:44;;;;;;;17.35;8.18;;;15.30;99.90;;;;;;6245287;23;20024;-60
2023/07/02 00:46:17;;;;;;;16.35;7.72;;;15.30;99.90;;;;;;6244606;23;20055;-61
2023/07/02 00:48:45;;;;;;;18.65;8.05;;;15.20;99.90;;;;;;6245276;22;20028;-61
2023/07/02 00:51:15;;;;;;;19.70;8.23;;;15.20;99.90;;;;;;6243374;23;20032;-60
2023/07/02 00:53:42;;;;;;;22.05;7.65;;;15.10;99.90;;;;;;6244523;23;20020;-60
2023/07/02 00:56:11;;;;;;;24.10;7.82;;;15.10;99.90;;;;;;6245320;23;20026;-60
2023/07/02 00:58:40;;;;;;;20.63;8.07;;;15.00;99.90;;;;;;6245147;22;20024;-60
2023/07/02 01:01:07;;;;;;;18.20;7.28;;;15.00;99.90;;;;;;6242814;23;20031;-59
2023/07/02 01:03:37;;;;;;;18.50;7.68;;;15.00;99.90;;;;;;6245086;23;20028;-60
2023/07/02 01:06:04;;;;;;;22.60;8.63;;;14.90;99.90;;;;;;6245179;23;20031;-60
2023/07/02 01:08:31;;;;;;;25.02;8.40;;;14.90;99.90;;;;;;6244443;23;20024;-60
2023/07/02 01:11:00;;;;;;;19.50;8.10;;;14.90;99.90;;;;;;6245303;22;20021;-60
2023/07/02 01:13:28;;;;;;;19.08;8.57;;;14.90;99.90;;;;;;6244355;23;20170;-60
2023/07/02 01:15:56;;;;;;;20.08;8.13;;;14.80;99.90;;;;;;6243340;23;20469;-61
2023/07/02 01:18:23;;;;;;;24.98;8.68;;;14.80;99.90;;;;;;6243314;23;20512;-60
2023/07/02 01:20:53;;;;;;;23.58;9.10;;;14.80;99.90;;;;;;6244327;23;20050;-60
2023/07/02 01:23:20;;;;;;;30.25;9.55;;;14.70;99.90;;;;;;6245076;23;20082;-60
2023/07/02 01:25:48;;;;;;;21.05;8.38;;;14.70;99.90;;;;;;6245069;23;20023;-60
2023/07/02 01:28:14;;;;;;;22.83;8.45;;;14.70;99.90;;;;;;6242670;23;20366;-60
2023/07/02 01:30:41;;;;;;;26.45;9.93;;;14.70;99.90;;;;;;6245145;23;20389;-59
2023/07/02 01:33:08;;;;;;;17.02;7.38;;;14.70;99.90;;;;;;6245093;23;20323;-61
2023/07/02 01:35:35;;;;;;;20.17;8.43;;;14.60;99.90;;;;;;6242935;23;20038;-61
2023/07/02 01:38:03;;;;;;;21.23;8.02;;;14.60;99.90;;;;;;6246963;23;20031;-59
2023/07/02 01:40:30;;;;;;;25.50;8.55;;;14.50;99.90;;;;;;6244932;23;20443;-60
2023/07/02 01:42:57;;;;;;;22.45;9.23;;;14.50;99.90;;;;;;6244306;23;20401;-59
2023/07/02 01:45:25;;;;;;;23.45;8.30;;;14.50;99.90;;;;;;6246855;23;20020;-60
2023/07/02 01:47:52;;;;;;;24.55;9.82;;;14.50;99.90;;;;;;6246941;23;20344;-60
2023/07/02 01:50:19;;;;;;;25.00;8.88;;;14.40;99.90;;;;;;6244088;23;20023;-59
2023/07/02 01:52:45;;;;;;;25.92;8.52;;;14.40;99.90;;;;;;6247004;23;20026;-61
2023/07/02 01:55:14;;;;;;;23.33;9.02;;;14.40;99.90;;;;;;6244966;23;20070;-60
2023/07/02 01:57:41;;;;;;;21.58;8.13;;;14.30;99.90;;;;;;6243104;23;20093;-60
2023/07/02 02:00:09;;;;;;;30.23;8.68;;;14.30;99.90;;;;;;6246484;23;20028;-60
2023/07/02 02:02:36;;;;;;;20.48;8.40;;;14.30;99.90;;;;;;6245814;23;20026;-61
2023/07/02 02:05:04;;;;;;;23.15;8.80;;;14.30;99.90;;;;;;6246515;23;20024;-61
2023/07/02 02:07:30;;;;;;;26.58;9.27;;;14.20;99.90;;;;;;6246847;23;20119;-61
2023/07/02 02:09:57;;;;;;;22.02;9.32;;;14.20;99.90;;;;;;6244032;23;20027;-61
2023/07/02 02:12:28;;;;;;;22.08;7.68;;;14.20;99.90;;;;;;6246431;23;20350;-61
2023/07/02 02:14:55;;;;;;;14.05;7.25;;;14.20;99.90;;;;;;6246578;22;20026;-61
2023/07/02 02:17:23;;;;;;;32.13;9.10;;;14.10;99.90;;;;;;6245503;22;20027;-60
2023/07/02 02:19:50;;;;;;;25.38;8.63;;;14.10;99.90;;;;;;6246497;22;20020;-60
2023/07/02 02:22:17;;;;;;;23.27;9.13;;;14.10;99.90;;;;;;6246678;23;20020;-59
2023/07/02 02:24:44;;;;;;;22.80;9.05;;;14.10;99.90;;;;;;6245637;23;20030;-60
2023/07/02 02:27:11;;;;;;;25.52;9.48;;;14.00;99.90;;;;;;6246457;23;20053;-60
2023/07/02 02:29:39;;;;;;;22.55;8.50;;;13.90;99.90;;;;;;6246267;23;20024;-61
2023/07/02 02:32:07;;;;;;;26.50;9.32;;;13.90;99.90;;;;;;6243966;23;20027;-60
2023/07/02 02:34:34;;;;;;;21.70;9.30;;;13.90;99.90;;;;;;6246176;23;20123;-60
2023/07/02 02:37:01;;;;;;;19.08;9.30;;;13.90;99.90;;;;;;6246428;23;20024;-60
2023/07/02 02:39:28;;;;;;;25.35;8.55;;;13.80;99.90;;;;;;6245560;23;20026;-60
2023/07/02 02:41:55;;;;;;;18.63;8.82;;;13.80;99.90;;;;;;6245910;23;20058;-61
2023/07/02 02:44:22;;;;;;;24.55;9.15;;;13.70;99.90;;;;;;6244360;23;20103;-60
2023/07/02 02:46:50;;;;;;;24.05;9.23;;;13.70;99.90;;;;;;6244756;23;20016;-60
2023/07/02 02:49:17;;;;;;;25.80;9.38;;;13.70;99.90;;;;;;6245894;22;20027;-60
2023/07/02 02:51:44;;;;;;;23.17;8.38;;;13.70;99.90;;;;;;6243484;23;20405;-60
2023/07/02 02:54:11;;;;;;;24.70;9.43;;;13.60;99.90;;;;;;6244459;23;20024;-60
2023/07/02 02:56:38;;;;;;;21.13;8.48;;;13.60;99.90;;;;;;6244059;23;20035;-60
2023/07/02 02:59:05;;;;;;;30.50;9.10;;;13.60;99.90;;;;;;6245392;23;20023;-60
2023/07/02 03:01:32;;;;;;;28.85;8.95;;;13.60;99.90;;;;;;6244081;23;20035;-60
2023/07/02 03:04:00;;;;;;;24.27;9.27;;;13.50;99.90;;;;;;6244080;23;20024;-60
2023/07/02 03:06:27;;;;;;;29.42;9.35;;;13.50;99.90;;;;;;6243028;23;20086;-60
2023/07/02 03:08:54;;;;;;;27.05;9.75;;;13.50;99.90;;;;;;6245776;23;20032;-60
2023/07/02 03:11:21;;;;;;;20.48;8.75;;;13.60;99.90;;;;;;6243511;23;20027;-60
2023/07/02 03:13:48;;;;;;;31.35;9.48;;;13.50;99.90;;;;;;6245003;22;20023;-61
2023/07/02 03:16:15;;;;;;;20.50;8.38;;;13.50;99.90;;;;;;6243734;23;20016;-60
2023/07/02 03:18:42;;;;;;;28.70;9.32;;;13.50;99.90;;;;;;6245548;23;20016;-59
2023/07/02 03:21:10;;;;;;;24.52;9.20;;;13.50;99.90;;;;;;6244906;23;20023;-59
2023/07/02 03:23:37;;;;;;;25.73;9.88;;;13.50;99.90;;;;;;6245828;23;20466;-60
2023/07/02 03:26:04;;;;;;;29.23;10.00;;;13.60;99.90;;;;;;6245730;23;20393;-60
2023/07/02 03:28:33;;;;;;;27.20;9.35;;;13.50;99.90;;;;;;6240497;23;20023;-59
2023/07/02 03:31:00;;;;;;;25.52;9.80;;;13.60;99.90;;;;;;6237518;23;20564;-59
2023/07/02 03:33:27;;;;;;;23.13;8.75;;;13.60;99.90;;;;;;6242976;23;20327;-61
2023/07/02 03:35:54;;;;;;;21.35;7.80;;;13.60;99.90;;;;;;6234673;23;20117;-60
2023/07/02 03:38:22;;;;;;;22.40;8.35;;;13.60;99.90;;;;;;6245555;23;20398;-59
2023/07/02 03:40:49;;;;;;;26.75;9.10;;;13.60;99.90;;;;;;6245583;23;20024;-60
2023/07/02 03:43:16;;;;;;;26.00;9.25;;;13.60;99.90;;;;;;6243342;23;20028;-59
2023/07/02 03:45:43;;;;;;;29.65;8.50;;;13.70;99.90;;;;;;6245633;23;20024;-60
2023/07/02 03:48:10;;;;;;;18.13;8.07;;;13.60;99.90;;;;;;6242912;23;20027;-60
2023/07/02 03:50:37;;;;;;;22.13;8.82;;;13.70;99.90;;;;;;6245622;23;20050;-60
2023/07/02 03:53:04;;;;;;;21.67;8.50;;;13.70;99.90;;;;;;6245449;23;20031;-60
2023/07/02 03:55:32;;;;;;;39.10;10.18;;;13.80;99.90;;;;;;6242877;23;20035;-60
2023/07/02 03:57:59;;;;;;;26.77;8.50;;;13.80;99.90;;;;;;6243718;23;20358;-60
2023/07/02 04:00:26;;;;;;;29.77;8.40;;;13.80;99.90;;;;;;6245501;23;20050;-60
2023/07/02 04:02:53;;;;;;;19.58;8.15;;;13.80;99.90;;;;;;6244894;23;20450;-61
2023/07/02 04:05:21;;;;;;;21.45;8.32;;;13.90;99.90;;;;;;6245335;23;20477;-60
2023/07/02 04:07:48;;;;;;;21.98;8.93;;;13.90;99.90;;;;;;6245405;23;20438;-61
2023/07/02 04:10:15;;;;;;;23.77;8.55;;;14.70;99.90;;;;;;6244627;23;20090;-60
2023/07/02 04:12:44;;;;;;;22.73;7.95;;;14.00;99.90;;;;;;6243920;23;20024;-60
2023/07/02 04:15:11;;;;;;;19.98;7.53;;;14.10;99.90;;;;;;6245474;23;20031;-61
2023/07/02 04:17:38;;;;;;;22.25;9.95;;;14.10;99.90;;;;;;6244771;23;20020;-60
2023/07/02 04:20:07;;;;;;;25.02;9.82;;;14.20;99.90;;;;;;6245444;23;20028;-61
2023/07/02 04:22:34;;;;;;;17.25;7.57;;;14.30;99.90;;;;;;6243636;23;20353;-60
2023/07/02 04:25:01;;;;;;;21.35;7.72;;;14.40;99.90;;;;;;6244271;23;20476;-60
2023/07/02 04:27:28;;;;;;;24.95;8.93;;;14.50;99.90;;;;;;6245266;23;20027;-59
2023/07/02 04:29:56;;;;;;;28.17;8.70;;;14.50;99.90;;;;;;6245353;23;20307;-61
2023/07/02 04:32:24;;;;;;;18.17;7.50;;;14.60;99.90;;;;;;6244663;23;20407;-61
2023/07/02 04:34:51;;;;;;;18.25;8.20;;;14.60;99.90;;;;;;6245340;23;20076;-60
2023/07/02 04:37:18;;;;;;;19.95;7.30;;;14.60;99.90;;;;;;6244334;23;20024;-60
2023/07/02 04:39:45;;;;;;;17.63;8.10;;;14.60;99.90;;;;;;6243484;23;20082;-60
2023/07/02 04:42:14;;;;;;;19.20;8.38;;;14.60;99.90;;;;;;6244913;23;20021;-60
2023/07/02 04:44:43;;;;;;;19.67;7.78;;;14.60;99.90;;;;;;6242830;23;20393;-60
2023/07/02 04:47:11;;;;;;;18.27;7.43;;;14.60;99.90;;;;;;6245152;22;20027;-61
2023/07/02 04:49:38;;;;;;;18.77;7.95;;;14.60;99.90;;;;;;6243336;23;20027;-60
2023/07/02 04:52:06;;;;;;;18.08;7.95;;;14.70;99.90;;;;;;6242593;23;20082;-60
2023/07/02 04:54:32;;;;;;;18.42;7.82;;;14.70;99.90;;;;;;6244999;22;20339;-61
2023/07/02 04:56:59;;;;;;;24.98;7.68;;;14.80;99.90;;;;;;6243477;23;20079;-60
2023/07/02 04:59:26;;;;;;;16.30;7.50;;;14.80;99.90;;;;;;6244525;23;20089;-59
2023/07/02 05:01:53;;;;;;;22.30;7.22;;;15.00;99.90;;;;;;6245288;23;20024;-61
2023/07/02 05:04:22;;;;;;;26.27;7.88;;;15.00;99.90;;;;;;6245027;23;20331;-60
2023/07/02 05:06:49;;;;;;;19.52;6.82;;;15.20;99.90;;;;;;6244295;23;20027;-60
2023/07/02 05:09:16;;;;;;;17.27;7.07;;;15.30;99.90;;;;;;6245188;23;20039;-60
2023/07/02 05:11:43;;;;;;;14.90;6.50;;;15.50;99.90;;;;;;6244884;23;20359;-61
2023/07/02 05:14:10;;;;;;;18.55;6.25;;;15.80;99.90;;;;;;6246474;23;20028;-61
2023/07/02 05:16:37;;;;;;;19.67;6.50;;;15.90;99.90;;;;;;6245132;23;20082;-60
2023/07/02 05:19:03;;;;;;;15.15;6.00;;;16.00;99.90;;;;;;6245394;23;20028;-61
2023/07/02 05:21:32;;;;;;;16.10;6.13;;;16.00;99.90;;;;;;6246311;22;20028;-60
2023/07/02 05:23:59;;;;;;;18.50;5.43;;;16.00;99.90;;;;;;6245186;23;20024;-60
2023/07/02 05:26:27;;;;;;;17.33;5.90;;;15.90;99.90;;;;;;6245703;22;20450;-61
2023/07/02 05:28:53;;;;;;;12.82;5.25;;;15.90;99.90;;;;;;6246889;23;20070;-65
2023/07/02 05:31:20;;;;;;;13.57;6.43;;;15.80;99.90;;;;;;6244868;23;20328;-62
2023/07/02 05:33:47;;;;;;;13.23;5.03;;;15.80;99.90;;;;;;6246309;23;20046;-62
2023/07/02 05:36:15;;;;;;;14.95;5.90;;;15.70;99.90;;;;;;6245079;23;20027;-63
2023/07/02 05:38:43;;;;;;;13.70;5.43;;;15.70;99.90;;;;;;6247024;23;20042;-63
2023/07/02 05:41:10;;;;;;;13.32;6.10;;;15.90;99.90;;;;;;6245898;22;20028;-63
2023/07/02 05:43:37;;;;;;;16.02;6.03;;;16.30;99.90;;;;;;6245013;23;20035;-63
2023/07/02 05:46:04;;;;;;;15.30;5.40;;;16.60;99.90;;;;;;6244892;23;20035;-64
2023/07/02 05:48:31;;;;;;;17.27;6.25;;;16.90;99.90;;;;;;6245997;23;20027;-62
2023/07/02 05:50:57;;;;;;;15.05;5.85;;;17.10;99.90;;;;;;6245075;23;20024;-62
2023/07/02 05:53:24;;;;;;;14.52;5.50;;;17.10;99.90;;;;;;6244824;23;20031;-62
2023/07/02 05:55:53;;;;;;;17.15;5.38;;;17.20;99.90;;;;;;6246036;23;20020;-60
2023/07/02 05:58:20;;;;;;;20.58;6.25;;;17.10;99.90;;;;;;6243144;23;20028;-61
2023/07/02 06:00:49;;;;;;;15.73;5.35;;;17.30;99.90;;;;;;6244109;23;20401;-61
2023/07/02 06:03:19;;;;;;;18.70;6.55;;;17.50;99.90;;;;;;6242258;23;20469;-61
2023/07/02 06:05:48;;;;;;;16.48;7.00;;;17.70;99.90;;;;;;6244177;23;20032;-61
2023/07/02 06:08:15;;;;;;;19.42;7.25;;;17.70;99.90;;;;;;6242875;23;20024;-61
2023/07/02 06:10:42;;;;;;;13.50;5.10;;;17.80;99.90;;;;;;6245150;23;20388;-61
2023/07/02 06:13:11;;;;;;;13.77;6.05;;;17.80;99.90;;;;;;6244140;23;20341;-62
2023/07/02 06:15:38;;;;;;;16.00;6.55;;;17.90;99.90;;;;;;6243439;23;20028;-61
2023/07/02 06:18:05;;;;;;;16.05;5.63;;;18.00;99.90;;;;;;6245014;23;20030;-61
2023/07/02 06:20:32;;;;;;;13.25;5.28;;;18.20;99.90;;;;;;6243693;23;20020;-61
2023/07/02 06:22:59;;;;;;;12.95;5.80;;;18.30;99.90;;;;;;6243881;22;20030;-61
2023/07/02 06:25:27;;;;;;;13.52;5.65;;;18.40;99.90;;;;;;6243569;23;20028;-61
2023/07/02 06:27:57;;;;;;;13.27;5.95;;;18.50;99.90;;;;;;6245158;23;20337;-61
2023/07/02 06:30:26;;;;;;;16.48;5.88;;;18.70;99.90;;;;;;6244601;23;20034;-60
2023/07/02 06:32:53;;;;;;;16.60;5.35;;;18.80;99.90;;;;;;6243513;23;20028;-61
2023/07/02 06:35:20;;;;;;;16.02;5.65;;;19.00;99.90;;;;;;6244994;23;20095;-61
2023/07/02 06:37:47;;;;;;;17.15;5.78;;;19.00;99.90;;;;;;6242809;23;20094;-62
2023/07/02 06:40:14;;;;;;;13.73;5.88;;;18.90;99.90;;;;;;6244861;23;20354;-61
2023/07/02 06:42:41;;;;;;;14.48;4.78;;;18.80;99.90;;;;;;6243277;23;20086;-61
2023/07/02 06:45:09;;;;;;;10.18;5.13;;;18.60;99.90;;;;;;6243554;23;20449;-61
2023/07/02 06:47:37;;;;;;;13.05;4.88;;;18.30;99.90;;;;;;6243769;23;20035;-61
2023/07/02 06:50:04;;;;;;;8.27;3.70;;;18.10;99.90;;;;;;6244485;23;20024;-61
2023/07/02 06:52:31;;;;;;;7.97;3.45;;;18.10;99.90;;;;;;6244887;23;20024;-61
2023/07/02 06:54:58;;;;;;;11.40;4.25;;;18.40;99.90;;;;;;6243033;23;20024;-61
2023/07/02 06:57:25;;;;;;;13.30;4.10;;;18.70;99.90;;;;;;6243615;23;20028;-60
2023/07/02 06:59:52;;;;;;;12.27;4.07;;;18.90;99.90;;;;;;6243760;23;20024;-61
2023/07/02 07:02:19;;;;;;;10.57;3.28;;;19.20;99.90;;;;;;6245536;22;20031;-61
2023/07/02 07:04:47;;;;;;;11.45;3.85;;;19.60;99.90;;;;;;6244603;23;20028;-61
2023/07/02 07:07:15;;;;;;;10.95;3.60;;;19.70;99.90;;;;;;6244458;23;20020;-61
2023/07/02 07:09:42;;;;;;;10.02;3.67;;;19.80;99.90;;;;;;6244831;23;20020;-60
2023/07/02 07:12:09;;;;;;;9.05;3.05;;;20.10;99.50;;;;;;6242838;23;20020;-61
2023/07/02 07:14:36;;;;;;;11.55;3.60;;;20.30;98.90;;;;;;6245182;22;20032;-61
2023/07/02 07:17:03;;;;;;;6.32;3.17;;;20.50;97.80;;;;;;6244715;23;20332;-61
2023/07/02 07:19:30;;;;;;;8.63;2.97;;;20.80;97.00;;;;;;6244056;22;20074;-61
2023/07/02 07:21:58;;;;;;;5.68;2.80;;;21.10;96.80;;;;;;6245086;23;20385;-61
2023/07/02 07:24:25;;;;;;;9.13;3.22;;;21.40;96.20;;;;;;6243258;23;20024;-61
2023/07/02 07:26:52;;;;;;;13.05;3.00;;;21.60;95.00;;;;;;6244404;23;20082;-61
2023/07/02 07:29:19;;;;;;;9.02;3.67;;;21.80;95.30;;;;;;6244629;23;20035;-60
2023/07/02 07:31:47;;;;;;;10.55;3.65;;;21.90;95.20;;;;;;6244969;22;20074;-61
2023/07/02 07:34:14;;;;;;;11.85;3.35;;;21.80;94.80;;;;;;6244055;23;20024;-62
2023/07/02 07:36:41;;;;;;;9.90;3.22;;;21.40;95.50;;;;;;6243092;23;20028;-61
2023/07/02 07:39:09;;;;;;;9.60;3.10;;;21.10;95.90;;;;;;6244861;23;20082;-62
2023/07/02 07:41:36;;;;;;;9.85;2.80;;;21.20;95.30;;;;;;6241884;23;20024;-61
2023/07/02 07:44:03;;;;;;;5.45;2.70;;;21.50;95.60;;;;;;6243001;23;20350;-61
2023/07/02 07:46:30;;;;;;;9.50;3.03;;;22.20;94.00;;;;;;6243065;23;20024;-62
2023/07/02 07:48:57;;;;;;;8.77;3.28;;;22.30;93.60;;;;;;6243432;23;20458;-62
2023/07/02 07:51:24;;;;;;;10.82;3.13;;;22.60;93.10;;;;;;6244424;23;20031;-61
2023/07/02 07:53:50;;;;;;;8.32;2.83;;;22.60;92.90;;;;;;6242391;23;20397;-60
2023/07/02 07:56:19;;;;;;;6.70;2.72;;;23.00;92.80;;;;;;6243162;23;20024;-61
2023/07/02 07:58:46;;;;;;;9.30;3.15;;;23.30;92.30;;;;;;6244525;23;20027;-60
2023/07/02 08:01:13;;;;;;;6.38;2.50;;;22.90;91.80;;;;;;6242812;23;20027;-61
2023/07/02 08:03:40;;;;;;;6.95;2.67;;;22.80;92.20;;;;;;6243451;23;20031;-62
2023/07/02 08:06:07;;;;;;;10.60;3.70;;;23.00;91.80;;;;;;6245600;23;20035;-61
2023/07/02 08:08:34;;;;;;;9.25;3.65;;;23.10;92.10;;;;;;6244715;23;20024;-61
2023/07/02 08:11:01;;;;;;;7.32;2.63;;;22.90;92.20;;;;;;6245263;23;20349;-61
2023/07/02 08:13:29;;;;;;;8.27;2.78;;;22.20;92.30;;;;;;6243491;23;20469;-60
2023/07/02 08:15:56;;;;;;;9.45;3.85;;;21.60;92.30;;;;;;6244818;23;20028;-61
2023/07/02 08:18:23;;;;;;;10.77;3.33;;;20.80;92.90;;;;;;6245360;23;20024;-61
2023/07/02 08:20:50;;;;;;;10.13;3.42;;;20.30;93.50;;;;;;6245186;23;20020;-60
2023/07/02 08:23:17;;;;;;;8.02;2.92;;;19.90;94.40;;;;;;6242810;23;20031;-60
2023/07/02 08:25:44;;;;;;;7.97;3.22;;;19.30;95.20;;;;;;6243592;23;20031;-62
2023/07/02 08:28:10;;;;;;;13.30;3.45;;;19.10;95.80;;;;;;6242921;23;20032;-61
2023/07/02 08:30:39;;;;;;;11.65;3.50;;;18.80;96.60;;;;;;6242492;23;20024;-61
2023/07/02 08:33:06;;;;;;;7.82;3.60;;;19.00;97.60;;;;;;6245284;23;20024;-61
2023/07/02 08:35:33;;;;;;;10.18;3.80;;;18.90;99.90;;;;;;6245486;23;20066;-61
2023/07/02 08:38:00;;;;;;;9.15;3.90;;;18.70;99.90;;;;;;6244735;23;20016;-62
2023/07/02 08:40:28;;;;;;;10.30;3.55;;;18.70;99.90;;;;;;6245002;23;20031;-61
2023/07/02 08:42:56;;;;;;;11.10;3.80;;;19.30;99.90;;;;;;6244988;23;20020;-61
2023/07/02 08:45:25;;;;;;;9.73;3.75;;;19.70;99.90;;;;;;6243222;23;20074;-61
2023/07/02 08:47:56;;;;;;;8.25;4.15;;;20.40;99.90;;;;;;6247224;23;20052;-62
2023/07/02 08:50:23;;;;;;;12.65;3.50;;;21.20;99.60;;;;;;6247457;23;20024;-62
2023/07/02 08:52:50;;;;;;;8.98;3.38;;;22.10;96.60;;;;;;6244979;23;20024;-61
2023/07/02 08:55:17;;;;;;;9.98;3.83;;;22.40;93.80;;;;;;6247330;23;20020;-61
2023/07/02 08:57:51;;;;;;;10.48;3.65;;;22.20;94.50;;;;;;6246728;23;20020;-61
2023/07/02 09:00:19;;;;;;;8.60;3.42;;;22.10;93.80;;;;;;6245504;23;20082;-62
2023/07/02 09:02:47;;;;;;;9.15;3.58;;;21.80;94.80;;;;;;6247487;23;20063;-62
2023/07/02 09:05:15;;;;;;;12.70;3.97;;;22.50;94.50;;;;;;6244733;23;20028;-61
2023/07/02 09:07:46;;;;;;;7.38;2.75;;;22.80;94.00;;;;;;6245334;23;20024;-62
2023/07/02 09:10:26;;;;;;;10.38;3.08;;;23.10;92.80;;;;;;6247200;23;20031;-62
2023/07/02 09:13:04;;;;;;;6.63;2.47;;;23.40;91.90;;;;;;6244897;23;20030;-62
2023/07/02 09:15:37;;;;;;;9.63;3.03;;;23.50;91.40;;;;;;6247154;23;20297;-61
2023/07/02 09:18:14;;;;;;;6.30;2.95;;;23.70;91.40;;;;;;6245622;23;20028;-62
2023/07/02 09:20:43;;;;;;;6.20;2.38;;;23.50;91.00;;;;;;6246235;23;20020;-61
2023/07/02 09:23:10;;;;;;;11.13;2.55;;;22.70;90.10;;;;;;6247284;23;20385;-61
2023/07/02 09:25:39;;;;;;;5.68;2.38;;;22.40;90.70;;;;;;6246730;23;20031;-62
2023/07/02 09:28:16;;;;;;;5.68;2.45;;;22.40;91.30;;;;;;6245291;23;20046;-62
2023/07/02 09:30:54;;;;;;;7.85;3.00;;;22.50;91.60;;;;;;6245202;23;20028;-61
2023/07/02 09:33:22;;;;;;;9.07;5.40;;;22.80;91.10;;;;;;6244435;23;20024;-62
2023/07/02 09:35:51;;;;;;;6.55;2.60;;;23.10;91.60;;;;;;6247058;23;20031;-62
2023/07/02 09:38:20;;;;;;;8.95;2.78;;;23.80;90.90;;;;;;6245217;23;20024;-62
2023/07/02 09:40:48;;;;;;;6.47;2.63;;;24.00;89.50;;;;;;6246119;23;20024;-61
2023/07/02 09:43:16;;;;;;;8.98;2.47;;;24.60;88.20;;;;;;6245080;23;20024;-62
2023/07/02 09:45:48;;;;;;;6.35;2.60;;;24.70;88.30;;;;;;6246469;23;20484;-62
2023/07/02 09:48:16;;;;;;;8.23;2.53;;;24.30;87.20;;;;;;6246165;22;20344;-62
2023/07/02 09:50:44;;;;;;;9.23;2.63;;;23.60;87.80;;;;;;6246849;23;20028;-61
2023/07/02 09:53:13;;;;;;;9.25;2.75;;;23.40;87.80;;;;;;6247003;23;20020;-62
2023/07/02 09:55:40;;;;;;;10.20;3.65;;;23.20;87.10;;;;;;6245696;23;20070;-62
2023/07/02 09:58:07;;;;;;;7.38;2.63;;;23.90;87.90;;;;;;6245223;23;20032;-62
2023/07/02 10:00:34;;;;;;;6.38;2.35;;;24.20;87.20;;;;;;6246742;23;20020;-62
2023/07/02 10:03:02;;;;;;;7.10;2.70;;;24.30;87.40;;;;;;6244180;23;20024;-62
2023/07/02 10:05:30;;;;;;;6.53;2.95;;;24.00;85.50;;;;;;6244687;23;20472;-62
2023/07/02 10:07:57;;;;;;;9.30;3.17;;;23.80;87.70;;;;;;6246026;23;20338;-61
2023/07/02 10:10:30;;;;;;;8.90;3.05;;;23.40;87.20;;;;;;6245738;23;20020;-62
2023/07/02 10:12:57;;;;;;;8.13;2.50;;;23.40;87.20;;;;;;6246052;23;20067;-61
2023/07/02 10:15:29;;;;;;;7.10;2.17;;;22.70;87.70;;;;;;6243991;23;20028;-62
2023/07/02 10:17:56;;;;;;;8.02;2.70;;;22.60;86.90;;;;;;6246274;23;20026;-61
2023/07/02 10:20:33;;;;;;;8.80;2.58;;;22.40;87.60;;;;;;6244725;23;20133;-62
2023/07/02 10:23:01;;;;;;;7.32;2.47;;;22.50;86.30;;;;;;6243965;23;20089;-60
2023/07/02 10:25:31;;;;;;;6.43;2.55;;;23.10;85.60;;;;;;6246529;22;20491;-62
2023/07/02 10:27:59;;;;;;;8.63;3.20;;;23.80;85.00;;;;;;6246644;23;20385;-61
2023/07/02 10:30:33;;;;;;;10.13;2.90;;;23.60;84.60;;;;;;6243867;23;20053;-63
2023/07/02 10:33:11;;;;;;;7.30;2.75;;;23.10;85.70;;;;;;6244600;23;20346;-62
2023/07/02 10:35:41;;;;;;;5.85;2.55;;;22.70;87.60;;;;;;6246469;23;20024;-61
2023/07/02 10:38:08;;;;;;;9.48;3.38;;;22.30;88.10;;;;;;6245752;23;20048;-60
2023/07/02 10:40:36;;;;;;;9.40;3.30;;;22.80;89.50;;;;;;6244520;23;20360;-61
2023/07/02 10:43:03;;;;;;;9.95;2.80;;;23.60;89.70;;;;;;6245149;23;20050;-60
2023/07/02 10:45:34;;;;;;;12.10;2.72;;;24.10;87.80;;;;;;6244391;23;20024;-61
2023/07/02 10:48:04;;;;;;;7.60;2.97;;;24.80;85.00;;;;;;6244566;23;20020;-61
2023/07/02 10:50:31;;;;;;;;;;;25.00;83.40;;;;;;6245638;23;20458;-61
2023/07/02 10:52:58;;;;;;;8.15;3.05;;;25.00;83.30;;;;;;6244514;23;19923;-64
2023/07/02 10:55:27;;;;;;;7.65;2.70;;;25.50;83.20;;;;;;6244284;23;20079;-63
2023/07/02 10:58:06;;;;;;;8.18;3.17;;;24.90;81.00;;;;;;6245202;23;20524;-61
2023/07/02 11:00:33;;;;;;;13.13;6.88;;;23.90;83.20;;;;;;6246425;23;20020;-61
2023/07/02 11:03:00;;;;;;;9.90;4.25;;;23.20;84.60;;;;;;6245900;23;20099;-61
2023/07/02 11:05:28;;;;;;;8.38;3.20;;;22.80;86.20;;;;;;6245516;23;20028;-62
2023/07/02 11:07:57;;;;;;;12.13;4.97;;;22.70;87.80;;;;;;6243910;23;20024;-61
2023/07/02 11:10:25;;;;;;;7.20;2.73;;;22.90;88.20;;;;;;6246149;22;20024;-61
2023/07/02 11:12:52;;;;;;;8.95;3.47;;;22.40;89.10;;;;;;6245160;23;20130;-62
2023/07/02 11:15:21;;;;;;;8.50;2.75;;;22.40;88.80;;;;;;6244130;23;20024;-62
2023/07/02 11:17:48;;;;;;;11.05;3.08;;;22.70;87.70;;;;;;6245819;23;20024;-62
2023/07/02 11:20:16;;;;;;;6.55;2.83;;;22.50;88.40;;;;;;6243323;23;20462;-61
2023/07/02 11:22:43;;;;;;;8.20;2.83;;;22.50;87.80;;;;;;6244083;23;20442;-61
2023/07/02 11:25:12;;;;;;;10.35;2.83;;;22.60;88.20;;;;;;6245753;23;20031;-62
2023/07/02 11:27:39;;;;;;;6.10;2.58;;;23.00;87.80;;;;;;6246088;23;20035;-61
2023/07/02 11:30:07;;;;;;;5.57;2.20;;;22.90;88.00;;;;;;6245634;23;20024;-61
2023/07/02 11:32:48;;;;;;;7.38;2.38;;;22.70;86.60;;;;;;6245196;22;20028;-61
2023/07/02 11:35:15;;;;;;;12.27;2.70;;;22.60;86.60;;;;;;6243827;23;20063;-61
2023/07/02 11:37:42;;;;;;;8.52;2.35;;;22.20;88.10;;;;;;6245940;23;20327;-61
2023/07/02 11:40:10;;;;;;;10.48;2.25;;;23.10;87.60;;;;;;6243104;23;20024;-61
2023/07/02 11:42:36;;;;;;;5.97;2.13;;;23.60;86.40;;;;;;6243826;23;20024;-61
2023/07/02 11:45:04;;;;;;;7.28;2.22;;;23.70;85.70;;;;;;6243997;23;20028;-62
2023/07/02 11:47:31;;;;;;;7.68;2.75;;;23.60;85.70;;;;;;6245010;22;20024;-62
2023/07/02 11:49:59;;;;;;;7.00;2.55;;;23.20;86.50;;;;;;6243974;23;20028;-62
2023/07/02 11:52:26;;;;;;;12.60;5.97;;;22.90;87.20;;;;;;6243822;23;20024;-62
2023/07/02 11:54:53;;;;;;;8.13;2.63;;;22.40;87.60;;;;;;6244633;23;20024;-61
2023/07/02 11:57:22;;;;;;;7.13;2.65;;;22.00;88.90;;;;;;6245236;23;20523;-62
2023/07/02 11:59:50;;;;;;;7.05;2.20;;;22.10;89.20;;;;;;6243840;23;20056;-62
2023/07/02 12:02:17;;;;;;;8.82;3.17;;;22.20;89.10;;;;;;6244413;23;20454;-62
2023/07/02 12:04:43;;;;;;;8.07;2.28;;;22.00;87.30;;;;;;6245577;23;20031;-62
2023/07/02 12:07:13;;;;;;;9.10;3.00;;;22.30;86.00;;;;;;6243754;23;20527;-62
2023/07/02 12:09:40;;;;;;;6.47;2.60;;;23.00;86.50;;;;;;6244450;23;20327;-61
2023/07/02 12:12:08;;;;;;;7.35;2.53;;;23.20;86.10;;;;;;6245486;23;20020;-60
2023/07/02 12:14:35;;;;;;;7.97;2.67;;;23.10;86.80;;;;;;6245118;22;20020;-62
2023/07/02 12:17:02;;;;;;;9.60;2.28;;;23.10;86.90;;;;;;6243650;23;20024;-62
2023/07/02 12:19:29;;;;;;;8.73;2.97;;;22.80;86.10;;;;;;6243714;23;20020;-61
2023/07/02 12:21:56;;;;;;;11.40;2.65;;;22.40;86.90;;;;;;6242896;23;20036;-61
2023/07/02 12:24:24;;;;;;;7.88;2.55;;;22.10;86.70;;;;;;6243625;23;20024;-62
2023/07/02 12:26:51;;;;;;;6.00;2.80;;;22.10;86.90;;;;;;6243703;23;20024;-61
2023/07/02 12:29:18;;;;;;;8.65;3.00;;;21.70;87.10;;;;;;6244868;23;20058;-61
2023/07/02 12:31:45;;;;;;;4.82;2.40;;;21.60;87.30;;;;;;6243742;23;20484;-60
2023/07/02 12:34:12;;;;;;;9.10;3.03;;;21.60;86.60;;;;;;6245440;23;20024;-62
2023/07/02 12:36:39;;;;;;;10.25;3.08;;;21.80;86.60;;;;;;6244755;23;20028;-62
2023/07/02 12:39:06;;;;;;;8.05;2.90;;;21.70;85.80;;;;;;6245482;23;20074;-61
2023/07/02 12:41:34;;;;;;;8.00;2.70;;;21.30;87.00;;;;;;6243488;23;20036;-61
2023/07/02 12:44:01;;;;;;;8.65;3.10;;;21.20;86.60;;;;;;6244636;23;20020;-61